createdAt,value
2018-02-22T00:01:42.263Z,65.43
2018-02-22T00:04:09.892Z,73.23
2018-02-22T00:06:37.568Z,62.40
2018-02-22T00:09:05.200Z,66.50
2018-02-22T00:11:35.529Z,65.90
2018-02-22T00:14:03.216Z,67.03
2018-02-22T00:16:30.859Z,64.20
2018-02-22T00:18:58.491Z,62.00
2018-02-22T00:21:29.059Z,60.67
2018-02-22T00:23:56.682Z,63.87
2018-02-22T00:26:24.314Z,66.33
2018-02-22T00:28:51.996Z,66.40
2018-02-22T00:31:19.620Z,66.10
2018-02-22T00:33:47.248Z,62.93
2018-02-22T00:38:54.019Z,66.75
2018-02-22T00:41:21.708Z,62.67
2018-02-22T00:43:49.331Z,65.70
2018-02-22T00:46:16.958Z,67.30
2018-02-22T00:48:45.481Z,64.20
2018-02-22T00:51:16.581Z,66.00
2018-02-22T00:53:44.216Z,61.87
2018-02-22T00:56:11.892Z,61.67
2018-02-22T00:58:39.515Z,64.43
2018-02-22T01:01:07.154Z,68.10
2018-02-22T01:03:34.842Z,62.27
2018-02-22T01:06:02.480Z,65.53
2018-02-22T01:08:30.099Z,64.03
2018-02-22T01:10:57.780Z,66.83
2018-02-22T01:16:04.188Z,63.90
2018-02-22T01:18:31.808Z,67.73
2018-02-22T01:20:59.432Z,59.43
2018-02-22T01:23:27.116Z,59.53
2018-02-22T01:25:54.748Z,66.10
2018-02-22T01:28:22.396Z,65.73
2018-02-22T01:30:50.079Z,63.87
2018-02-22T01:33:17.703Z,68.80
2018-02-22T01:35:45.335Z,62.77
2018-02-22T01:38:13.031Z,60.73
2018-02-22T01:40:40.655Z,61.03
2018-02-22T01:43:08.279Z,64.30
2018-02-22T01:45:35.962Z,58.00
2018-02-22T01:48:03.596Z,69.77
2018-02-22T01:50:31.217Z,67.67
2018-02-22T01:52:58.903Z,63.00
2018-02-22T01:55:26.532Z,66.83
2018-02-22T01:57:54.167Z,67.17
2018-02-22T02:00:21.846Z,66.77
2018-02-22T02:02:49.474Z,68.53
2018-02-22T02:05:17.101Z,74.30
2018-02-22T02:07:44.782Z,62.40
2018-02-22T02:10:12.418Z,67.43
2018-02-22T02:12:40.049Z,70.53
2018-02-22T02:15:07.726Z,65.30
2018-02-22T02:17:35.356Z,68.40
2018-02-22T02:20:02.989Z,73.10
2018-02-22T02:22:30.696Z,67.70
2018-02-22T02:24:58.331Z,72.97
2018-02-22T02:27:25.963Z,75.63
2018-02-22T02:29:53.653Z,73.77
2018-02-22T02:32:21.282Z,75.00
2018-02-22T02:34:48.910Z,70.93
2018-02-22T02:37:16.598Z,69.60
2018-02-22T02:39:44.225Z,68.10
2018-02-22T02:44:51.020Z,75.00
2018-02-22T02:47:20.758Z,72.23
2018-02-22T02:49:48.395Z,62.23
2018-02-22T02:52:16.072Z,67.43
2018-02-22T02:54:43.700Z,65.97
2018-02-22T02:57:11.332Z,66.43
2018-02-22T03:02:06.681Z,68.83
2018-02-22T03:04:34.308Z,68.93
2018-02-22T03:07:01.989Z,59.77
2018-02-22T03:09:29.612Z,73.50
2018-02-22T03:11:57.238Z,71.23
2018-02-22T03:14:24.924Z,69.83
2018-02-22T03:16:52.559Z,72.63
2018-02-22T03:19:20.205Z,74.43
2018-02-22T03:21:47.878Z,77.57
2018-02-22T03:24:18.801Z,74.77
2018-02-22T03:26:46.438Z,72.13
2018-02-22T03:29:14.122Z,68.97
2018-02-22T03:31:41.761Z,73.77
2018-02-22T03:34:09.391Z,64.60
2018-02-22T03:36:37.079Z,67.83
2018-02-22T03:39:04.712Z,68.80
2018-02-22T03:41:32.341Z,69.90
2018-02-22T03:44:00.294Z,56.43
2018-02-22T03:46:27.930Z,66.80
2018-02-22T03:48:55.554Z,67.50
2018-02-22T03:51:23.243Z,72.00
2018-02-22T03:53:50.871Z,72.30
2018-02-22T03:56:18.502Z,70.13
2018-02-22T03:58:47.142Z,69.23
2018-02-22T04:01:14.780Z,74.03
2018-02-22T04:06:22.702Z,72.47
2018-02-22T04:08:50.333Z,67.83
2018-02-22T04:11:17.956Z,68.37
2018-02-22T04:13:45.631Z,64.10
2018-02-22T04:16:13.648Z,74.50
2018-02-22T04:18:41.274Z,69.83
2018-02-22T04:21:08.959Z,69.57
2018-02-22T04:23:36.588Z,69.70
2018-02-22T04:26:04.215Z,70.33
2018-02-22T04:28:31.894Z,72.00
2018-02-22T04:30:59.521Z,71.37
2018-02-22T04:33:27.671Z,68.67
2018-02-22T04:35:55.344Z,62.07
2018-02-22T04:38:22.976Z,56.47
2018-02-22T04:40:50.594Z,68.83
2018-02-22T04:43:19.276Z,73.13
2018-02-22T04:45:46.901Z,60.87
2018-02-22T04:48:14.523Z,66.00
2018-02-22T04:50:42.210Z,72.67
2018-02-22T04:53:09.826Z,73.57
2018-02-22T04:55:37.455Z,74.97
2018-02-22T04:58:05.606Z,70.37
2018-02-22T05:00:33.240Z,57.63
2018-02-22T05:03:00.866Z,64.67
2018-02-22T05:05:28.545Z,67.93
2018-02-22T05:07:56.175Z,72.30
2018-02-22T05:10:23.808Z,73.57
2018-02-22T05:12:51.496Z,63.50
2018-02-22T05:15:19.152Z,76.87
2018-02-22T05:17:46.793Z,74.03
2018-02-22T05:20:15.226Z,54.57
2018-02-22T05:22:42.853Z,61.03
2018-02-22T05:25:10.483Z,71.00
2018-02-22T05:30:19.141Z,77.32
2018-02-22T05:32:46.822Z,60.40
2018-02-22T05:35:14.457Z,70.80
2018-02-22T05:37:42.084Z,59.87
2018-02-22T05:40:09.769Z,68.60
2018-02-22T05:42:37.403Z,65.70
2018-02-22T05:45:05.210Z,71.03
2018-02-22T05:47:32.708Z,61.47
2018-02-22T05:50:00.343Z,71.83
2018-02-22T05:52:27.962Z,68.37
2018-02-22T05:54:55.656Z,66.87
2018-02-22T05:57:23.746Z,70.30
2018-02-22T05:59:51.387Z,71.93
2018-02-22T06:02:19.469Z,80.83
2018-02-22T06:04:47.109Z,70.17
2018-02-22T06:07:15.254Z,71.17
2018-02-22T06:09:42.946Z,76.30
2018-02-22T06:12:10.624Z,82.23
2018-02-22T06:14:38.255Z,72.90
2018-02-22T06:17:05.989Z,80.70
2018-02-22T06:19:33.614Z,74.93
2018-02-22T06:22:01.247Z,81.13
2018-02-22T06:24:28.938Z,75.47
2018-02-22T06:26:56.560Z,72.97
2018-02-22T06:29:24.187Z,75.83
2018-02-22T06:31:51.890Z,90.77
2018-02-22T06:34:19.513Z,72.87
2018-02-22T06:36:47.146Z,67.90
2018-02-22T06:39:14.843Z,76.20
2018-02-22T06:41:42.472Z,77.37
2018-02-22T06:46:50.324Z,81.35
2018-02-22T06:49:17.955Z,75.50
2018-02-22T06:51:45.586Z,73.37
2018-02-22T06:54:13.280Z,70.10
2018-02-22T06:56:40.910Z,73.27
2018-02-22T06:59:08.543Z,74.67
2018-02-22T07:01:36.254Z,72.53
2018-02-22T07:04:03.899Z,80.17
2018-02-22T07:06:31.528Z,76.27
2018-02-22T07:08:59.218Z,80.77
2018-02-22T07:11:26.839Z,73.10
2018-02-22T07:13:54.497Z,81.90
2018-02-22T07:16:22.176Z,78.90
2018-02-22T07:18:49.829Z,73.33
2018-02-22T07:21:17.454Z,80.43
2018-02-22T07:23:45.144Z,80.87
2018-02-22T07:26:12.776Z,79.60
2018-02-22T07:28:41.168Z,74.37
2018-02-22T07:31:08.854Z,71.07
2018-02-22T07:33:36.489Z,73.10
2018-02-22T07:36:04.122Z,85.37
2018-02-22T07:38:35.018Z,60.20
2018-02-22T07:43:34.453Z,76.10
2018-02-22T07:46:02.465Z,70.70
2018-02-22T07:48:30.108Z,73.73
2018-02-22T07:50:57.798Z,72.83
2018-02-22T07:53:25.442Z,75.33
2018-02-22T07:55:53.084Z,75.60
2018-02-22T07:58:20.783Z,78.13
2018-02-22T08:00:48.405Z,76.47
2018-02-22T08:03:16.049Z,72.27
2018-02-22T08:08:22.839Z,78.07
2018-02-22T08:10:50.522Z,73.33
2018-02-22T08:13:18.148Z,61.93
2018-02-22T08:15:45.783Z,68.03
2018-02-22T08:18:13.475Z,69.43
2018-02-22T08:20:41.121Z,63.37
2018-02-22T08:23:08.759Z,62.60
2018-02-22T08:25:36.435Z,60.70
2018-02-22T08:28:04.067Z,53.70
2018-02-22T08:30:33.659Z,58.07
2018-02-22T08:33:01.336Z,64.07
2018-02-22T08:35:28.987Z,68.37
2018-02-22T08:37:56.631Z,60.27
2018-02-22T08:40:24.310Z,71.57
2018-02-22T08:42:51.954Z,70.87
2018-02-22T08:45:19.595Z,69.17
2018-02-22T08:47:47.291Z,62.83
2018-02-22T08:50:14.920Z,63.10
2018-02-22T08:52:42.618Z,57.97
2018-02-22T08:55:10.246Z,64.77
2018-02-22T08:57:37.894Z,50.53
2018-02-22T09:00:07.542Z,59.83
2018-02-22T09:02:33.235Z,59.50
2018-02-22T09:05:00.835Z,56.70
2018-02-22T09:07:28.474Z,66.57
2018-02-22T09:09:56.156Z,66.43
2018-02-22T09:12:23.785Z,58.17
2018-02-22T09:14:51.421Z,58.77
2018-02-22T09:17:19.103Z,67.10
2018-02-22T09:19:46.738Z,58.97
2018-02-22T09:22:14.375Z,68.13
2018-02-22T09:24:42.071Z,66.97
2018-02-22T09:27:09.698Z,62.00
2018-02-22T09:32:16.490Z,67.10
2018-02-22T09:34:44.119Z,57.80
2018-02-22T09:37:11.755Z,61.57
2018-02-22T09:39:39.441Z,56.70
2018-02-22T09:42:07.105Z,65.03
2018-02-22T09:44:34.735Z,63.57
2018-02-22T09:47:02.415Z,58.10
2018-02-22T09:49:30.078Z,53.87
2018-02-22T09:51:57.716Z,61.10
2018-02-22T09:54:25.418Z,57.53
2018-02-22T09:56:53.048Z,58.63
2018-02-22T09:59:20.687Z,64.30
2018-02-22T10:01:48.378Z,59.43
2018-02-22T10:04:15.999Z,62.53
2018-02-22T10:06:43.631Z,55.87
2018-02-22T10:09:11.318Z,46.50
2018-02-22T10:11:38.953Z,54.93
2018-02-22T10:14:06.579Z,60.43
2018-02-22T10:16:34.254Z,51.57
2018-02-22T10:19:01.937Z,58.10
2018-02-22T10:21:29.518Z,49.13
2018-02-22T10:23:57.200Z,53.30
2018-02-22T10:26:24.835Z,59.00
2018-02-22T10:28:52.461Z,50.87
2018-02-22T10:31:20.149Z,53.73
2018-02-22T10:33:48.051Z,55.57
2018-02-22T10:36:15.679Z,47.37
2018-02-22T10:38:43.370Z,42.23
2018-02-22T10:41:10.995Z,52.43
2018-02-22T10:43:38.655Z,51.83
2018-02-22T10:46:06.333Z,43.53
2018-02-22T10:48:33.973Z,40.43
2018-02-22T10:51:01.600Z,45.27
2018-02-22T10:56:08.391Z,51.67
2018-02-22T10:58:36.073Z,46.30
2018-02-22T11:01:09.367Z,48.73
2018-02-22T11:03:37.030Z,47.07
2018-02-22T11:06:04.655Z,50.73
2018-02-22T11:08:32.291Z,42.90
2018-02-22T11:10:59.978Z,56.27
2018-02-22T11:13:27.610Z,44.87
2018-02-22T11:15:55.238Z,48.57
2018-02-22T11:18:22.921Z,42.87
2018-02-22T11:20:50.560Z,38.67
2018-02-22T11:23:18.189Z,41.10
2018-02-22T11:25:45.888Z,47.33
2018-02-22T11:28:13.519Z,51.17
2018-02-22T11:30:41.148Z,44.80
2018-02-22T11:33:08.834Z,43.83
2018-02-22T11:35:36.452Z,39.70
2018-02-22T11:38:04.087Z,41.73
2018-02-22T11:40:31.769Z,45.50
2018-02-22T11:42:59.389Z,27.80
2018-02-22T11:45:27.214Z,31.23
2018-02-22T11:47:54.853Z,44.67
2018-02-22T11:50:22.511Z,46.17
2018-02-22T11:52:50.087Z,44.90
2018-02-22T11:55:17.773Z,40.53
2018-02-22T11:57:45.404Z,42.60
2018-02-22T12:00:13.044Z,43.60
2018-02-22T12:02:40.732Z,40.93
2018-02-22T12:05:08.361Z,40.67
2018-02-22T12:07:35.981Z,43.57
2018-02-22T12:10:03.717Z,41.90
2018-02-22T12:12:31.306Z,45.47
2018-02-22T12:14:58.940Z,42.23
2018-02-22T12:17:26.611Z,45.27
2018-02-22T12:22:33.394Z,41.75
2018-02-22T12:25:01.031Z,38.53
2018-02-22T12:27:28.655Z,34.43
2018-02-22T12:29:56.332Z,47.47
2018-02-22T12:32:23.964Z,37.77
2018-02-22T12:34:51.587Z,39.47
2018-02-22T12:37:19.264Z,31.90
2018-02-22T12:39:46.890Z,36.40
2018-02-22T12:42:14.506Z,49.00
2018-02-22T12:44:42.182Z,32.23
2018-02-22T12:47:09.812Z,43.03
2018-02-22T12:49:37.451Z,40.70
2018-02-22T12:52:05.137Z,47.70
2018-02-22T12:54:32.764Z,43.97
2018-02-22T12:57:00.392Z,45.83
2018-02-22T12:59:28.090Z,45.87
2018-02-22T13:01:55.711Z,40.60
2018-02-22T13:04:23.336Z,45.77
2018-02-22T13:06:51.045Z,41.90
2018-02-22T13:09:18.663Z,45.43
2018-02-22T13:11:46.290Z,43.73
2018-02-22T13:16:45.736Z,43.83
2018-02-22T13:19:13.497Z,37.53
2018-02-22T13:21:41.129Z,45.07
2018-02-22T13:24:08.751Z,45.47
2018-02-22T13:26:36.464Z,46.20
2018-02-22T13:29:04.092Z,40.33
2018-02-22T13:31:31.719Z,42.47
2018-02-22T13:34:11.073Z,45.70
2018-02-22T13:36:38.697Z,39.90
2018-02-22T13:41:48.218Z,42.58
2018-02-22T13:44:27.661Z,42.70
2018-02-22T13:46:55.335Z,41.00
2018-02-22T13:49:34.758Z,39.03
2018-02-22T13:52:02.438Z,37.77
2018-02-22T13:54:30.069Z,42.07
2018-02-22T13:59:45.363Z,48.83
2018-02-22T14:05:00.438Z,45.33
2018-02-22T14:07:28.131Z,37.63
2018-02-22T14:09:55.761Z,40.57
2018-02-22T14:12:23.416Z,46.30
2018-02-22T14:14:51.084Z,39.73
2018-02-22T14:17:18.722Z,38.97
2018-02-22T14:19:46.336Z,34.27
2018-02-22T14:22:14.023Z,40.13
2018-02-22T14:24:41.648Z,44.00
2018-02-22T14:27:09.282Z,45.50
2018-02-22T14:29:36.963Z,45.33
2018-02-22T14:32:04.600Z,45.47
2018-02-22T14:34:32.224Z,47.83
2018-02-22T14:36:59.898Z,41.13
2018-02-22T14:39:27.524Z,35.87
2018-02-22T14:41:55.150Z,41.63
2018-02-22T14:44:22.834Z,47.43
2018-02-22T14:46:50.468Z,34.40
2018-02-22T14:49:18.087Z,45.33
2018-02-22T14:51:45.941Z,45.03
2018-02-22T14:54:13.563Z,53.67
2018-02-22T14:56:41.183Z,41.03
2018-02-22T14:59:08.869Z,44.03
2018-02-22T15:01:36.493Z,44.60
2018-02-22T15:04:04.111Z,41.07
2018-02-22T15:06:31.797Z,45.63
2018-02-22T15:08:59.416Z,48.83
2018-02-22T15:11:27.046Z,46.60
2018-02-22T15:13:54.726Z,37.33
2018-02-22T15:16:22.358Z,34.73
2018-02-22T15:18:49.987Z,39.30
2018-02-22T15:21:17.669Z,39.00
2018-02-22T15:23:45.287Z,52.27
2018-02-22T15:28:52.337Z,53.45
2018-02-22T15:31:19.949Z,52.77
2018-02-22T15:33:47.587Z,46.93
2018-02-22T15:36:15.253Z,54.73
2018-02-22T15:38:42.876Z,47.37
2018-02-22T15:41:10.506Z,50.57
2018-02-22T15:43:38.183Z,49.60
2018-02-22T15:46:05.818Z,50.63
2018-02-22T15:48:33.442Z,43.53
2018-02-22T15:51:01.115Z,37.70
2018-02-22T15:53:28.747Z,52.00
2018-02-22T15:55:56.369Z,51.47
2018-02-22T15:58:24.075Z,46.93
2018-02-22T16:00:53.054Z,49.57
2018-02-22T16:03:20.713Z,58.93
2018-02-22T16:05:48.372Z,51.87
2018-02-22T16:08:15.992Z,49.30
2018-02-22T16:10:45.798Z,48.63
2018-02-22T16:13:11.604Z,53.97
2018-02-22T16:15:39.228Z,49.90
2018-02-22T16:18:06.869Z,47.47
2018-02-22T16:20:34.552Z,44.50
2018-02-22T16:23:02.186Z,53.57
2018-02-22T16:25:29.842Z,43.30
2018-02-22T16:27:57.542Z,38.33
2018-02-22T16:30:25.169Z,46.50
2018-02-22T16:32:52.862Z,49.63
2018-02-22T16:35:20.496Z,54.17
2018-02-22T16:37:48.144Z,46.70
2018-02-22T16:40:15.787Z,50.47
2018-02-22T16:48:03.129Z,53.33
2018-02-22T16:50:30.771Z,46.27
2018-02-22T16:52:58.408Z,53.60
2018-02-22T16:55:26.103Z,45.87
2018-02-22T16:57:53.741Z,54.10
2018-02-22T17:00:21.371Z,52.27
2018-02-22T17:02:49.076Z,54.07
2018-02-22T17:05:16.705Z,52.60
2018-02-22T17:07:44.339Z,54.63
2018-02-22T17:10:12.024Z,53.13
2018-02-22T17:12:39.664Z,47.83
2018-02-22T17:15:07.300Z,51.40
2018-02-22T17:17:44.931Z,57.33
2018-02-22T17:20:12.689Z,52.57
2018-02-22T17:22:40.347Z,51.97
2018-02-22T17:25:08.024Z,42.60
2018-02-22T17:27:41.338Z,58.97
2018-02-22T17:30:14.737Z,51.20
2018-02-22T17:32:42.370Z,57.60
2018-02-22T17:43:11.460Z,58.83
2018-02-22T17:45:39.100Z,51.13
2018-02-22T17:48:06.732Z,57.90
2018-02-22T17:50:34.411Z,49.57
2018-02-22T17:53:02.074Z,58.27
2018-02-22T17:55:29.686Z,45.00
2018-02-22T17:57:57.775Z,56.33
2018-02-22T18:00:25.395Z,57.40
2018-02-22T18:02:53.035Z,57.47
2018-02-22T18:05:20.729Z,62.80
2018-02-22T18:07:48.371Z,60.07
2018-02-22T18:10:16.064Z,56.47
2018-02-22T18:15:24.930Z,58.33
2018-02-22T18:17:52.637Z,57.43
2018-02-22T18:20:21.376Z,60.93
2018-02-22T18:22:49.572Z,57.13
2018-02-22T18:25:17.288Z,55.70
2018-02-22T18:30:29.438Z,66.40
2018-02-22T18:32:57.416Z,62.23
2018-02-22T18:35:27.017Z,56.80
2018-02-22T18:37:59.587Z,62.27
2018-02-22T18:40:32.900Z,65.20
2018-02-22T18:43:00.582Z,61.00
2018-02-22T18:45:28.238Z,56.50
2018-02-22T18:47:55.844Z,61.80
2018-02-22T18:50:23.552Z,57.37
2018-02-22T18:52:51.188Z,60.90
2018-02-22T18:55:18.870Z,55.30
2018-02-22T18:57:46.557Z,53.63
2018-02-22T19:00:14.190Z,60.73
2018-02-22T19:02:41.824Z,57.67
2018-02-22T19:05:09.526Z,59.50
2018-02-22T19:07:37.161Z,57.13
2018-02-22T19:10:04.800Z,63.27
2018-02-22T19:12:32.522Z,67.20
2018-02-22T19:15:00.171Z,65.03
2018-02-22T19:17:27.797Z,66.10
2018-02-22T19:19:55.480Z,68.27
2018-02-22T19:22:23.154Z,54.03
2018-02-22T19:24:50.811Z,58.53
2018-02-22T19:27:18.518Z,66.97
2018-02-22T19:29:46.167Z,63.57
2018-02-22T19:32:13.818Z,64.33
2018-02-22T19:34:41.515Z,72.07
2018-02-22T19:37:09.157Z,61.23
2018-02-22T19:39:36.793Z,64.57
2018-02-22T19:42:04.488Z,64.40
2018-02-22T19:44:32.140Z,65.47
2018-02-22T19:46:59.793Z,59.37
2018-02-22T19:49:27.511Z,63.07
2018-02-22T19:51:55.168Z,58.37
2018-02-22T19:57:03.976Z,67.75
2018-02-22T19:59:31.669Z,59.30
2018-02-22T20:01:59.300Z,66.60
2018-02-22T20:04:27.055Z,70.17
2018-02-22T20:06:54.692Z,64.07
2018-02-22T20:09:22.323Z,67.10
2018-02-22T20:11:50.042Z,65.00
2018-02-22T20:14:17.634Z,60.67
2018-02-22T20:16:45.424Z,61.47
2018-02-22T20:19:13.071Z,62.83
2018-02-22T20:21:40.726Z,60.97
2018-02-22T20:24:08.374Z,67.83
2018-02-22T20:26:36.068Z,55.47
2018-02-22T20:29:03.797Z,55.27
2018-02-22T20:31:32.484Z,65.97
2018-02-22T20:34:00.211Z,59.30
2018-02-22T20:36:28.168Z,71.77
2018-02-22T20:38:55.764Z,69.43
2018-02-22T20:41:23.460Z,70.40
2018-02-22T20:43:51.133Z,62.27
2018-02-22T20:46:18.813Z,60.23
2018-02-22T20:48:46.538Z,56.70
2018-02-22T20:53:55.059Z,69.43
2018-02-22T20:56:22.684Z,68.77
2018-02-22T20:58:50.338Z,70.47
2018-02-22T21:01:18.068Z,67.30
2018-02-22T21:03:45.664Z,66.47
2018-02-22T21:06:13.304Z,65.07
2018-02-22T21:08:40.990Z,60.43
2018-02-22T21:11:08.626Z,67.13
2018-02-22T21:13:36.264Z,65.23
2018-02-22T21:16:03.955Z,66.10
2018-02-22T21:18:31.600Z,67.53
2018-02-22T21:20:59.234Z,62.03
2018-02-22T21:23:27.868Z,68.67
2018-02-22T21:25:55.516Z,59.43
2018-02-22T21:28:23.165Z,65.13
2018-02-22T21:30:50.859Z,61.33
2018-02-22T21:33:18.485Z,67.97
2018-02-22T21:35:46.148Z,65.83
2018-02-22T21:38:13.849Z,61.20
2018-02-22T21:40:41.487Z,68.10
2018-02-22T21:43:09.124Z,66.37
2018-02-22T21:45:36.822Z,69.00
2018-02-22T21:48:04.452Z,64.50
2018-02-22T21:50:32.082Z,63.53
2018-02-22T21:52:59.778Z,56.77
2018-02-22T21:55:27.418Z,77.00
2018-02-22T21:57:55.060Z,75.17
2018-02-22T22:00:22.735Z,68.90
2018-02-22T22:02:50.514Z,65.33
2018-02-22T22:05:18.077Z,68.10
2018-02-22T22:07:45.764Z,58.73
2018-02-22T22:10:13.406Z,65.17
2018-02-22T22:12:41.023Z,67.87
2018-02-22T22:17:47.823Z,68.45
2018-02-22T22:20:15.502Z,62.60
2018-02-22T22:22:43.217Z,59.80
2018-02-22T22:25:10.853Z,69.93
2018-02-22T22:27:38.845Z,72.70
2018-02-22T22:30:06.505Z,67.37
2018-02-22T22:32:34.150Z,69.70
2018-02-22T22:35:01.829Z,73.63
2018-02-22T22:37:29.458Z,69.47
2018-02-22T22:39:57.095Z,70.73
2018-02-22T22:42:24.785Z,74.13
2018-02-22T22:47:32.894Z,76.20
2018-02-22T22:50:00.532Z,76.50
2018-02-22T22:52:28.159Z,74.83
2018-02-22T22:54:55.847Z,66.50
2018-02-22T22:57:23.481Z,70.27
2018-02-22T22:59:51.108Z,75.50
2018-02-22T23:02:18.792Z,70.87
2018-02-22T23:04:46.422Z,67.07
2018-02-22T23:07:14.061Z,70.43
2018-02-22T23:09:41.743Z,75.87
2018-02-22T23:12:12.989Z,70.80
2018-02-22T23:14:40.616Z,75.13
2018-02-22T23:17:08.311Z,74.07
2018-02-22T23:19:35.931Z,69.50
2018-02-22T23:22:03.550Z,73.07
2018-02-22T23:24:31.238Z,73.90
2018-02-22T23:26:58.852Z,73.33
2018-02-22T23:29:26.472Z,78.77
2018-02-22T23:31:54.143Z,81.23
2018-02-22T23:34:21.763Z,73.47
2018-02-22T23:36:49.380Z,76.50
2018-02-22T23:39:17.070Z,69.07
2018-02-22T23:44:29.674Z,82.65
2018-02-22T23:46:57.290Z,77.40
2018-02-22T23:49:24.913Z,72.10
2018-02-22T23:51:52.594Z,74.17
2018-02-22T23:54:20.197Z,74.83
2018-02-22T23:56:49.211Z,70.63
